ENT4591 EPKT-LTAI
Flight info
| Callsign | ENT4591 |
|---|---|
| Flight time | N/A |
| Altitude | 39000 |
| Route | REGTO DCT RAZEC DCT KEKED DCT UPAMA DCT ADORU UG80 EKI UL606 CRD UL854 KOZLU |
| Aircraft | B738/M-DFGHIJ1LORVWXY/EB1 |
Departure
| Time | 2026-05-04 20:09 |
|---|---|
| Airport | Katowice Wojciech Korfanty International Airport (EPKT) |
Arrival
| Time | N/A |
|---|---|
| Airport | Antalya International Airport (LTAI) |
| Time | Latitude | Longitude | Altitude | Speed | Heading |
|---|---|---|---|---|---|
| 2026-05-04 19:47 | 50.47147 | 19.07758 | 989 ft | 0 kts | 179° |
| 2026-05-04 19:59 | 50.47154 | 19.07758 | 1014 ft | 2 kts | 179° |
| 2026-05-04 20:00 | 50.47174 | 19.07758 | 1017 ft | 3 kts | 181° |
| 2026-05-04 20:00 | 50.47194 | 19.07759 | 1012 ft | 3 kts | 181° |
| 2026-05-04 20:00 | 50.47214 | 19.07758 | 1014 ft | 3 kts | 171° |
| 2026-05-04 20:00 | 50.47231 | 19.07751 | 1012 ft | 3 kts | 128° |
| 2026-05-04 20:01 | 50.47235 | 19.07741 | 1011 ft | 0 kts | 90° |
| 2026-05-04 20:03 | 50.47235 | 19.07742 | 1011 ft | 1 kts | 90° |
| 2026-05-04 20:03 | 50.47234 | 19.07835 | 1017 ft | 14 kts | 91° |
| 2026-05-04 20:03 | 50.47233 | 19.07993 | 1019 ft | 14 kts | 90° |
| 2026-05-04 20:04 | 50.47233 | 19.08145 | 1016 ft | 14 kts | 90° |
| 2026-05-04 20:04 | 50.47232 | 19.08290 | 1021 ft | 13 kts | 90° |
| 2026-05-04 20:04 | 50.47232 | 19.08430 | 1020 ft | 13 kts | 90° |
| 2026-05-04 20:04 | 50.47232 | 19.08576 | 1018 ft | 14 kts | 90° |
| 2026-05-04 20:05 | 50.47232 | 19.08752 | 1017 ft | 18 kts | 90° |
| 2026-05-04 20:05 | 50.47232 | 19.08964 | 1018 ft | 21 kts | 90° |
| 2026-05-04 20:05 | 50.47231 | 19.09214 | 1020 ft | 23 kts | 90° |
| 2026-05-04 20:05 | 50.47231 | 19.09461 | 1022 ft | 22 kts | 90° |
| 2026-05-04 20:06 | 50.47230 | 19.09702 | 1027 ft | 22 kts | 90° |
| 2026-05-04 20:06 | 50.47230 | 19.09936 | 1028 ft | 21 kts | 90° |
| 2026-05-04 20:06 | 50.47291 | 19.10132 | 1030 ft | 20 kts | 53° |
| 2026-05-04 20:06 | 50.47375 | 19.10300 | 1031 ft | 18 kts | 51° |
| 2026-05-04 20:07 | 50.47405 | 19.10360 | 1031 ft | 0 kts | 52° |
| 2026-05-04 20:07 | 50.47406 | 19.10361 | 1031 ft | 1 kts | 52° |
| 2026-05-04 20:07 | 50.47428 | 19.10405 | 1032 ft | 10 kts | 50° |
| 2026-05-04 20:08 | 50.47501 | 19.10445 | 1029 ft | 13 kts | 359° |
| 2026-05-04 20:08 | 50.47592 | 19.10397 | 1029 ft | 16 kts | 288° |
| 2026-05-04 20:08 | 50.47596 | 19.10161 | 1027 ft | 45 kts | 270° |
| 2026-05-04 20:08 | 50.47599 | 19.09269 | 1021 ft | 116 kts | 270° |
| 2026-05-04 20:09 | 50.47592 | 19.07681 | 1071 ft | 169 kts | 269° |
| 2026-05-04 20:09 | 50.47597 | 19.05865 | 1907 ft | 160 kts | 267° |
| 2026-05-04 20:09 | 50.47609 | 19.04172 | 2784 ft | 163 kts | 266° |
| 2026-05-04 20:09 | 50.47619 | 19.02221 | 3099 ft | 193 kts | 267° |
| 2026-05-04 20:10 | 50.47635 | 18.99975 | 3366 ft | 217 kts | 267° |
| 2026-05-04 20:10 | 50.47355 | 18.97625 | 3825 ft | 225 kts | 243° |
| 2026-05-04 20:10 | 50.46450 | 18.95645 | 4607 ft | 225 kts | 225° |
| 2026-05-04 20:10 | 50.45149 | 18.94092 | 5093 ft | 248 kts | 204° |
| 2026-05-04 20:11 | 50.43404 | 18.93700 | 5812 ft | 262 kts | 184° |
| 2026-05-04 20:11 | 50.41550 | 18.93707 | 6609 ft | 269 kts | 182° |
| 2026-05-04 20:11 | 50.39674 | 18.93734 | 7491 ft | 270 kts | 182° |
| 2026-05-04 20:11 | 50.37784 | 18.93748 | 8358 ft | 273 kts | 182° |
| 2026-05-04 20:12 | 50.35869 | 18.93748 | 9202 ft | 277 kts | 182° |
| 2026-05-04 20:12 | 50.33934 | 18.93742 | 10045 ft | 280 kts | 182° |
| 2026-05-04 20:12 | 50.31935 | 18.93757 | 10514 ft | 298 kts | 178° |
| 2026-05-04 20:12 | 50.29844 | 18.94674 | 10723 ft | 327 kts | 156° |
| 2026-05-04 20:13 | 50.27960 | 18.96791 | 11267 ft | 343 kts | 136° |
| 2026-05-04 20:13 | 50.26396 | 18.99660 | 12043 ft | 348 kts | 131° |
| 2026-05-04 20:13 | 50.24895 | 19.02678 | 12807 ft | 353 kts | 130° |
| 2026-05-04 20:13 | 50.23404 | 19.05745 | 13567 ft | 357 kts | 130° |
| 2026-05-04 20:14 | 50.21909 | 19.08816 | 14239 ft | 362 kts | 131° |
| 2026-05-04 20:14 | 50.20373 | 19.11944 | 14944 ft | 365 kts | 131° |
| 2026-05-04 20:14 | 50.18813 | 19.15095 | 15668 ft | 367 kts | 131° |
| 2026-05-04 20:14 | 50.17238 | 19.18265 | 16355 ft | 371 kts | 131° |
| 2026-05-04 20:15 | 50.15647 | 19.21451 | 17041 ft | 374 kts | 131° |
| 2026-05-04 20:15 | 50.14030 | 19.24672 | 17713 ft | 378 kts | 131° |
| 2026-05-04 20:15 | 50.12399 | 19.27909 | 18368 ft | 382 kts | 131° |
| 2026-05-04 20:15 | 50.10750 | 19.31171 | 18934 ft | 385 kts | 131° |
| 2026-05-04 20:16 | 50.09079 | 19.34470 | 19502 ft | 389 kts | 131° |
| 2026-05-04 20:16 | 50.07387 | 19.37802 | 20068 ft | 393 kts | 130° |
| 2026-05-04 20:16 | 50.05684 | 19.41150 | 20629 ft | 396 kts | 130° |
| 2026-05-04 20:16 | 50.03962 | 19.44531 | 21188 ft | 400 kts | 130° |
| 2026-05-04 20:17 | 50.02252 | 19.47886 | 21727 ft | 403 kts | 130° |
| 2026-05-04 20:17 | 50.01077 | 19.50188 | 22099 ft | 405 kts | 130° |
| 2026-05-04 20:17 | 49.99313 | 19.53639 | 22629 ft | 409 kts | 129° |
| 2026-05-04 20:17 | 49.97531 | 19.57121 | 23166 ft | 412 kts | 129° |
| 2026-05-04 20:18 | 49.95152 | 19.61763 | 23805 ft | 416 kts | 129° |
| 2026-05-04 20:18 | 49.93928 | 19.64149 | 24093 ft | 418 kts | 129° |
| 2026-05-04 20:18 | 49.92135 | 19.67639 | 24524 ft | 421 kts | 129° |
| 2026-05-04 20:18 | 49.90301 | 19.71204 | 24943 ft | 424 kts | 129° |
| 2026-05-04 20:19 | 49.88456 | 19.74784 | 25351 ft | 427 kts | 129° |
| 2026-05-04 20:19 | 49.86584 | 19.78413 | 25780 ft | 430 kts | 129° |
| 2026-05-04 20:19 | 49.84727 | 19.82008 | 26176 ft | 432 kts | 129° |
| 2026-05-04 20:19 | 49.82838 | 19.85660 | 26576 ft | 435 kts | 129° |
| 2026-05-04 20:20 | 49.80925 | 19.89352 | 26963 ft | 438 kts | 129° |
| 2026-05-04 20:20 | 49.79030 | 19.93005 | 27338 ft | 440 kts | 129° |
| 2026-05-04 20:20 | 49.77106 | 19.96708 | 27706 ft | 443 kts | 129° |
| 2026-05-04 20:20 | 49.75158 | 20.00454 | 28069 ft | 446 kts | 129° |
| 2026-05-04 20:21 | 49.73231 | 20.04152 | 28441 ft | 448 kts | 129° |
| 2026-05-04 20:21 | 49.71261 | 20.07929 | 28810 ft | 451 kts | 129° |
| 2026-05-04 20:21 | 49.67298 | 20.15510 | 29504 ft | 455 kts | 129° |
| 2026-05-04 20:22 | 49.65301 | 20.19321 | 29832 ft | 458 kts | 129° |
| 2026-05-04 20:22 | 49.63292 | 20.23149 | 30148 ft | 460 kts | 129° |
| 2026-05-04 20:22 | 49.61271 | 20.26995 | 30434 ft | 462 kts | 129° |
| 2026-05-04 20:22 | 49.59248 | 20.30839 | 30715 ft | 463 kts | 129° |
| 2026-05-04 20:23 | 49.57212 | 20.34703 | 30977 ft | 465 kts | 129° |
| 2026-05-04 20:23 | 49.55167 | 20.38578 | 31224 ft | 467 kts | 129° |
| 2026-05-04 20:23 | 49.53114 | 20.42463 | 31556 ft | 466 kts | 129° |
| 2026-05-04 20:23 | 49.51068 | 20.46329 | 31959 ft | 465 kts | 129° |
| 2026-05-04 20:24 | 49.49055 | 20.50126 | 32332 ft | 463 kts | 129° |
| 2026-05-04 20:24 | 49.46990 | 20.54018 | 32677 ft | 463 kts | 129° |
| 2026-05-04 20:24 | 49.44956 | 20.57846 | 32998 ft | 462 kts | 129° |
| 2026-05-04 20:24 | 49.42944 | 20.61627 | 33337 ft | 462 kts | 129° |
| 2026-05-04 20:25 | 49.40905 | 20.65448 | 33667 ft | 461 kts | 130° |
| 2026-05-04 20:25 | 49.38751 | 20.69129 | 33983 ft | 460 kts | 135° |
| 2026-05-04 20:25 | 49.36497 | 20.72547 | 34254 ft | 460 kts | 136° |
| 2026-05-04 20:25 | 49.34173 | 20.75943 | 34514 ft | 460 kts | 137° |
| 2026-05-04 20:26 | 49.31853 | 20.79315 | 34803 ft | 458 kts | 137° |
| 2026-05-04 20:26 | 49.29545 | 20.82697 | 35085 ft | 458 kts | 136° |
| 2026-05-04 20:26 | 49.27265 | 20.86067 | 35331 ft | 458 kts | 136° |
| 2026-05-04 20:26 | 49.24983 | 20.89459 | 35566 ft | 458 kts | 136° |
| 2026-05-04 20:27 | 49.22689 | 20.92878 | 35826 ft | 457 kts | 136° |
| 2026-05-04 20:27 | 49.20436 | 20.96235 | 36090 ft | 456 kts | 136° |
| 2026-05-04 20:27 | 49.18156 | 20.99623 | 36331 ft | 456 kts | 136° |
| 2026-05-04 20:27 | 49.15878 | 21.03001 | 36556 ft | 456 kts | 136° |
| 2026-05-04 20:28 | 49.13482 | 21.06174 | 36744 ft | 456 kts | 145° |
| 2026-05-04 20:28 | 49.10765 | 21.08668 | 36938 ft | 455 kts | 155° |
| 2026-05-04 20:28 | 49.07866 | 21.10478 | 37184 ft | 453 kts | 165° |
| 2026-05-04 20:28 | 49.04807 | 21.11628 | 37408 ft | 451 kts | 168° |
| 2026-05-04 20:29 | 49.01766 | 21.12621 | 37592 ft | 452 kts | 169° |
| 2026-05-04 20:29 | 48.98681 | 21.13603 | 37767 ft | 452 kts | 169° |
| 2026-05-04 20:29 | 48.95594 | 21.14595 | 37985 ft | 452 kts | 169° |
| 2026-05-04 20:29 | 48.92509 | 21.15608 | 38195 ft | 451 kts | 168° |
| 2026-05-04 20:30 | 48.89481 | 21.16619 | 38373 ft | 451 kts | 168° |
| 2026-05-04 20:30 | 48.86408 | 21.17656 | 38536 ft | 451 kts | 168° |
| 2026-05-04 20:30 | 48.83332 | 21.18697 | 38716 ft | 451 kts | 168° |
| 2026-05-04 20:30 | 48.80256 | 21.19740 | 38855 ft | 451 kts | 168° |
| 2026-05-04 20:31 | 48.77217 | 21.20769 | 38995 ft | 451 kts | 168° |
| 2026-05-04 20:31 | 48.74139 | 21.21809 | 39039 ft | 452 kts | 168° |
| 2026-05-04 20:31 | 48.67986 | 21.23881 | 39048 ft | 454 kts | 168° |
| 2026-05-04 20:32 | 48.61842 | 21.25946 | 39050 ft | 454 kts | 168° |
| 2026-05-04 20:32 | 48.55651 | 21.28020 | 39046 ft | 454 kts | 168° |
| 2026-05-04 20:33 | 48.49768 | 21.31310 | 39044 ft | 454 kts | 149° |
| 2026-05-04 20:33 | 48.44414 | 21.36324 | 39045 ft | 455 kts | 148° |
| 2026-05-04 20:34 | 48.39040 | 21.41450 | 39046 ft | 455 kts | 148° |
| 2026-05-04 20:34 | 48.33694 | 21.46479 | 39049 ft | 454 kts | 148° |
| 2026-05-04 20:35 | 48.28330 | 21.51468 | 39052 ft | 455 kts | 148° |
| 2026-05-04 20:35 | 48.22924 | 21.56469 | 39065 ft | 455 kts | 148° |
| 2026-05-04 20:36 | 48.17540 | 21.61435 | 39068 ft | 455 kts | 148° |
| 2026-05-04 20:36 | 48.12163 | 21.66384 | 39072 ft | 455 kts | 148° |
| 2026-05-04 20:37 | 48.06786 | 21.71322 | 39075 ft | 455 kts | 148° |
| 2026-05-04 20:37 | 48.01376 | 21.76278 | 39079 ft | 456 kts | 148° |
| 2026-05-04 20:38 | 47.95977 | 21.81211 | 39075 ft | 456 kts | 148° |
| 2026-05-04 20:38 | 47.90541 | 21.86166 | 39074 ft | 457 kts | 148° |
| 2026-05-04 20:39 | 47.85138 | 21.91079 | 39071 ft | 457 kts | 148° |
| 2026-05-04 20:39 | 47.79697 | 21.96014 | 39067 ft | 458 kts | 148° |
| 2026-05-04 20:40 | 47.74247 | 22.00944 | 39065 ft | 459 kts | 148° |
| 2026-05-04 20:40 | 47.68767 | 22.05890 | 39064 ft | 459 kts | 148° |
| 2026-05-04 20:41 | 47.63320 | 22.10794 | 39069 ft | 460 kts | 148° |
| 2026-05-04 20:41 | 47.57865 | 22.15692 | 39067 ft | 460 kts | 148° |
| 2026-05-04 20:42 | 47.52371 | 22.20615 | 39068 ft | 460 kts | 148° |
| 2026-05-04 20:42 | 47.46894 | 22.25509 | 39073 ft | 460 kts | 148° |
| 2026-05-04 20:43 | 47.41432 | 22.30378 | 39076 ft | 460 kts | 148° |
| 2026-05-04 20:43 | 47.35938 | 22.35263 | 39084 ft | 460 kts | 148° |
| 2026-05-04 20:44 | 47.30455 | 22.40126 | 39090 ft | 460 kts | 148° |
| 2026-05-04 20:44 | 47.24988 | 22.44965 | 39088 ft | 460 kts | 148° |
| 2026-05-04 20:45 | 47.19508 | 22.49802 | 39094 ft | 460 kts | 148° |
| 2026-05-04 20:45 | 47.14008 | 22.54645 | 39098 ft | 459 kts | 148° |
| 2026-05-04 20:46 | 47.08527 | 22.59460 | 39106 ft | 459 kts | 148° |
| 2026-05-04 20:46 | 47.03057 | 22.64253 | 39101 ft | 459 kts | 148° |
| 2026-05-04 20:47 | 46.97567 | 22.69053 | 39112 ft | 458 kts | 148° |
| 2026-05-04 20:47 | 46.92100 | 22.73820 | 39118 ft | 458 kts | 148° |
| 2026-05-04 20:48 | 46.86639 | 22.78571 | 39120 ft | 458 kts | 148° |
| 2026-05-04 20:48 | 46.81143 | 22.83342 | 39125 ft | 458 kts | 148° |
| 2026-05-04 20:49 | 46.75680 | 22.88072 | 39131 ft | 459 kts | 149° |
| 2026-05-04 20:49 | 46.70178 | 22.92823 | 39132 ft | 459 kts | 149° |
| 2026-05-04 20:50 | 46.64693 | 22.97550 | 39130 ft | 459 kts | 149° |
| 2026-05-04 20:50 | 46.59195 | 23.02277 | 39137 ft | 459 kts | 149° |
| 2026-05-04 20:51 | 46.53687 | 23.07000 | 39137 ft | 460 kts | 149° |
| 2026-05-04 20:51 | 46.48156 | 23.11732 | 39133 ft | 460 kts | 149° |
| 2026-05-04 20:52 | 46.42653 | 23.16429 | 39129 ft | 460 kts | 149° |
| 2026-05-04 20:52 | 46.37112 | 23.21147 | 39130 ft | 460 kts | 149° |
| 2026-05-04 20:53 | 46.31597 | 23.25832 | 39127 ft | 461 kts | 149° |
| 2026-05-04 20:53 | 46.26077 | 23.30510 | 39115 ft | 461 kts | 149° |
| 2026-05-04 20:54 | 46.20542 | 23.35190 | 39116 ft | 461 kts | 149° |
| 2026-05-04 20:54 | 46.15010 | 23.39856 | 39105 ft | 461 kts | 149° |
| 2026-05-04 20:55 | 46.09482 | 23.44508 | 39106 ft | 461 kts | 149° |
| 2026-05-04 20:55 | 46.03925 | 23.49173 | 39103 ft | 461 kts | 149° |
| 2026-05-04 20:56 | 45.98390 | 23.53809 | 39107 ft | 461 kts | 149° |
| 2026-05-04 20:56 | 45.92840 | 23.58447 | 39112 ft | 461 kts | 149° |
| 2026-05-04 20:57 | 45.87299 | 23.63066 | 39111 ft | 461 kts | 149° |
| 2026-05-04 20:57 | 45.81772 | 23.67663 | 39113 ft | 461 kts | 149° |
| 2026-05-04 20:58 | 45.76232 | 23.72259 | 39117 ft | 461 kts | 149° |
| 2026-05-04 20:58 | 45.70664 | 23.76870 | 39112 ft | 461 kts | 149° |
| 2026-05-04 20:59 | 45.65126 | 23.81443 | 39115 ft | 461 kts | 149° |
| 2026-05-04 20:59 | 45.59568 | 23.86023 | 39119 ft | 461 kts | 149° |
| 2026-05-04 21:00 | 45.54019 | 23.90585 | 39120 ft | 461 kts | 149° |
| 2026-05-04 21:00 | 45.48425 | 23.95174 | 39121 ft | 462 kts | 149° |
| 2026-05-04 21:01 | 45.42878 | 23.99713 | 39124 ft | 462 kts | 149° |
| 2026-05-04 21:01 | 45.37284 | 24.04281 | 39121 ft | 463 kts | 149° |
| 2026-05-04 21:02 | 45.31706 | 24.08824 | 39123 ft | 463 kts | 149° |
| 2026-05-04 21:02 | 45.26115 | 24.13369 | 39113 ft | 464 kts | 149° |
| 2026-05-04 21:03 | 45.20488 | 24.17931 | 39107 ft | 464 kts | 149° |
| 2026-05-04 21:03 | 45.14911 | 24.22443 | 39105 ft | 464 kts | 149° |
| 2026-05-04 21:04 | 45.09293 | 24.26978 | 39095 ft | 464 kts | 149° |
| 2026-05-04 21:04 | 45.03673 | 24.31504 | 39085 ft | 463 kts | 149° |
| 2026-05-04 21:05 | 44.98083 | 24.35995 | 39089 ft | 463 kts | 149° |
| 2026-05-04 21:05 | 44.92473 | 24.40492 | 39091 ft | 462 kts | 149° |
| 2026-05-04 21:06 | 44.86896 | 24.44953 | 39083 ft | 462 kts | 149° |
| 2026-05-04 21:06 | 44.81324 | 24.49400 | 39076 ft | 462 kts | 149° |
| 2026-05-04 21:07 | 44.75714 | 24.53868 | 39072 ft | 461 kts | 149° |
| 2026-05-04 21:07 | 44.70154 | 24.58284 | 39068 ft | 461 kts | 149° |
| 2026-05-04 21:08 | 44.64582 | 24.62702 | 39067 ft | 461 kts | 149° |
| 2026-05-04 21:08 | 44.58978 | 24.67134 | 39073 ft | 461 kts | 149° |
| 2026-05-04 21:09 | 44.53402 | 24.71535 | 39069 ft | 461 kts | 149° |
| 2026-05-04 21:09 | 44.47817 | 24.75933 | 39070 ft | 461 kts | 149° |
| 2026-05-04 21:10 | 44.43160 | 24.79592 | 39066 ft | 462 kts | 149° |
| 2026-05-04 21:10 | 44.37538 | 24.84002 | 39064 ft | 462 kts | 149° |
| 2026-05-04 21:11 | 44.31917 | 24.88401 | 39059 ft | 462 kts | 149° |
| 2026-05-04 21:11 | 44.26325 | 24.92767 | 39070 ft | 463 kts | 149° |
| 2026-05-04 21:12 | 44.20692 | 24.97155 | 39071 ft | 463 kts | 150° |
| 2026-05-04 21:12 | 44.15093 | 25.01508 | 39068 ft | 463 kts | 150° |
| 2026-05-04 21:13 | 44.09439 | 25.05893 | 39066 ft | 463 kts | 150° |
| 2026-05-04 21:13 | 44.03840 | 25.10227 | 39062 ft | 463 kts | 150° |
| 2026-05-04 21:14 | 43.98190 | 25.14590 | 39066 ft | 463 kts | 150° |
| 2026-05-04 21:14 | 43.92573 | 25.18919 | 39062 ft | 463 kts | 150° |
| 2026-05-04 21:15 | 43.86922 | 25.23264 | 39056 ft | 463 kts | 150° |
| 2026-05-04 21:15 | 43.81315 | 25.27566 | 39067 ft | 462 kts | 150° |
| 2026-05-04 21:16 | 43.75692 | 25.31871 | 39069 ft | 462 kts | 150° |
| 2026-05-04 21:16 | 43.70067 | 25.36170 | 39069 ft | 462 kts | 150° |
| 2026-05-04 21:17 | 43.64416 | 25.40479 | 39059 ft | 462 kts | 150° |
| 2026-05-04 21:17 | 43.58754 | 25.44625 | 39068 ft | 462 kts | 153° |
| 2026-05-04 21:18 | 43.52978 | 25.48467 | 39060 ft | 462 kts | 154° |
| 2026-05-04 21:18 | 43.47158 | 25.52301 | 39067 ft | 462 kts | 153° |
| 2026-05-04 21:19 | 43.41391 | 25.56143 | 39077 ft | 462 kts | 153° |
| 2026-05-04 21:19 | 43.35634 | 25.59999 | 39056 ft | 462 kts | 153° |
| 2026-05-04 21:20 | 43.29841 | 25.63878 | 39052 ft | 462 kts | 153° |
| 2026-05-04 21:20 | 43.24061 | 25.67739 | 39051 ft | 463 kts | 153° |
| 2026-05-04 21:21 | 43.18247 | 25.71613 | 39054 ft | 463 kts | 153° |
| 2026-05-04 21:21 | 43.12467 | 25.75456 | 39050 ft | 463 kts | 153° |
| 2026-05-04 21:22 | 43.06674 | 25.79299 | 39052 ft | 464 kts | 153° |